Terminal Aerodrome Forecast
Issued by NWS Louisville, KY

Home | Current Version | Previous Version | Text Only | Print | Product List | Glossary On
Versions: 1 2 3 4 5 6 7 8 9 10 11 12 13 14 15 16 17 18 19 20
673
FTUS43 KLMK 261121
TAFSDF
TAF
KSDF 261121Z 2612/2718 VRB03KT P6SM FEW200
     FM261500 19007KT P6SM FEW045 SCT150
     FM270000 20005KT P6SM BKN080
     FM271100 22003KT P6SM VCSH SCT025 BKN035=

USA.gov is the U.S. government's official web portal to all federal, state and local government web resources and services.